createdAt,value
2022-08-05T00:00:51.447Z,0.00
2022-08-05T00:01:51.434Z,0.00
2022-08-05T00:02:52.292Z,0.00
2022-08-05T00:03:51.452Z,0.00
2022-08-05T00:04:55.564Z,0.00
2022-08-05T00:06:04.905Z,0.00
2022-08-05T00:06:52.068Z,0.00
2022-08-05T00:08:00.748Z,0.00
2022-08-05T00:08:51.658Z,0.00
2022-08-05T00:09:51.701Z,0.00
2022-08-05T00:10:51.742Z,0.00
2022-08-05T00:11:55.632Z,0.00
2022-08-05T00:12:56.820Z,0.00
2022-08-05T00:13:53.256Z,0.00
2022-08-05T00:14:51.994Z,0.00
2022-08-05T00:15:56.413Z,0.00
2022-08-05T00:16:53.431Z,0.00
2022-08-05T00:17:52.036Z,0.00
2022-08-05T00:18:52.076Z,0.00
2022-08-05T00:20:01.903Z,0.00
2022-08-05T00:20:52.160Z,0.00
2022-08-05T00:21:52.208Z,0.00
2022-08-05T00:22:55.250Z,0.00
2022-08-05T00:24:09.978Z,0.00
2022-08-05T00:24:55.108Z,0.00
2022-08-05T00:25:52.370Z,0.00
2022-08-05T00:26:52.925Z,0.00
2022-08-05T00:27:52.456Z,0.00
2022-08-05T00:28:52.494Z,0.00
2022-08-05T00:29:52.541Z,0.00
2022-08-05T00:30:53.638Z,0.00
2022-08-05T00:32:09.362Z,0.00
2022-08-05T00:32:52.662Z,0.00
2022-08-05T00:34:55.987Z,0.00
2022-08-05T00:35:04.789Z,0.00
2022-08-05T00:36:16.217Z,0.00
2022-08-05T00:37:10.960Z,0.00
2022-08-05T00:37:54.094Z,0.00
2022-08-05T00:38:52.924Z,0.00
2022-08-05T00:39:58.625Z,0.00
2022-08-05T00:40:53.381Z,0.00
2022-08-05T00:41:55.560Z,0.00
2022-08-05T00:42:53.076Z,0.00
2022-08-05T00:43:53.117Z,0.00
2022-08-05T00:44:53.159Z,0.00
2022-08-05T00:45:53.202Z,0.00
2022-08-05T00:46:54.179Z,0.00
2022-08-05T00:47:57.705Z,0.00
2022-08-05T00:48:53.324Z,0.00
2022-08-05T00:49:53.375Z,0.00
2022-08-05T00:50:53.407Z,0.00
2022-08-05T00:51:53.456Z,0.00
2022-08-05T00:52:54.934Z,0.00
2022-08-05T00:54:02.304Z,0.00
2022-08-05T00:54:53.573Z,0.00
2022-08-05T00:55:53.631Z,0.00
2022-08-05T00:56:53.655Z,0.00
2022-08-05T00:57:58.690Z,0.00
2022-08-05T00:58:53.742Z,0.00
2022-08-05T00:59:53.781Z,0.00
2022-08-05T01:00:53.873Z,0.00
2022-08-05T01:01:53.898Z,0.00
2022-08-05T01:02:53.910Z,0.00
2022-08-05T01:03:53.947Z,0.00
2022-08-05T01:04:53.991Z,0.00
2022-08-05T01:05:54.436Z,0.00
2022-08-05T01:06:55.047Z,0.00
2022-08-05T01:08:41.080Z,0.00
2022-08-05T01:08:54.152Z,0.00
2022-08-05T01:09:55.601Z,0.00
2022-08-05T01:10:54.234Z,0.00
2022-08-05T01:11:54.276Z,0.00
2022-08-05T01:13:13.046Z,0.00
2022-08-05T01:13:58.847Z,0.00
2022-08-05T01:14:54.399Z,0.00
2022-08-05T01:15:54.443Z,0.00
2022-08-05T01:16:54.481Z,0.00
2022-08-05T01:17:54.524Z,0.00
2022-08-05T01:18:56.372Z,0.00
2022-08-05T01:20:02.088Z,0.00
2022-08-05T01:20:54.670Z,0.00
2022-08-05T01:21:54.690Z,0.00
2022-08-05T01:22:57.217Z,0.00
2022-08-05T01:23:54.771Z,0.00
2022-08-05T01:24:54.811Z,0.00
2022-08-05T01:25:54.855Z,0.00
2022-08-05T01:26:54.894Z,0.00
2022-08-05T01:27:55.825Z,0.00
2022-08-05T01:28:54.974Z,0.00
2022-08-05T01:29:55.016Z,0.00
2022-08-05T01:30:55.342Z,0.00
2022-08-05T01:31:55.102Z,0.00
2022-08-05T01:32:55.138Z,0.00
2022-08-05T01:33:55.421Z,0.00
2022-08-05T01:34:55.221Z,0.00
2022-08-05T01:35:55.262Z,0.00
2022-08-05T01:36:55.301Z,0.00
2022-08-05T01:37:55.347Z,0.00
2022-08-05T01:38:55.441Z,0.00
2022-08-05T01:39:59.070Z,0.00
2022-08-05T01:40:55.465Z,0.00
2022-08-05T01:41:55.505Z,0.00
2022-08-05T01:42:55.546Z,0.00
2022-08-05T01:43:55.589Z,0.00
2022-08-05T01:44:55.629Z,0.00
2022-08-05T01:45:56.659Z,0.00
2022-08-05T01:46:55.709Z,0.00
2022-08-05T01:47:55.754Z,0.00
2022-08-05T01:48:55.791Z,0.00
2022-08-05T01:50:02.226Z,0.00
2022-08-05T01:50:55.871Z,0.00
2022-08-05T01:51:55.912Z,0.00
2022-08-05T01:52:55.954Z,0.00
2022-08-05T01:53:58.651Z,0.00
2022-08-05T01:54:56.033Z,0.00
2022-08-05T01:55:56.081Z,0.00
2022-08-05T01:58:09.773Z,0.00
2022-08-05T01:58:18.741Z,0.00
2022-08-05T01:58:56.196Z,0.00
2022-08-05T01:59:56.240Z,0.00
2022-08-05T02:00:56.278Z,0.00
2022-08-05T02:01:56.405Z,0.00
2022-08-05T02:02:56.359Z,0.00
2022-08-05T02:03:56.402Z,0.00
2022-08-05T02:04:56.443Z,0.00
2022-08-05T02:05:58.008Z,0.00
2022-08-05T02:06:56.523Z,0.00
2022-08-05T02:08:01.178Z,0.00
2022-08-05T02:08:58.851Z,0.00
2022-08-05T02:09:56.642Z,0.00
2022-08-05T02:10:56.682Z,0.00
2022-08-05T02:11:56.725Z,0.00
2022-08-05T02:12:56.766Z,0.00
2022-08-05T02:13:56.805Z,0.00
2022-08-05T02:14:56.845Z,0.00
2022-08-05T02:15:56.888Z,0.00
2022-08-05T02:16:56.928Z,0.00
2022-08-05T02:18:32.992Z,0.00
2022-08-05T02:18:57.006Z,0.00
2022-08-05T02:19:57.047Z,0.00
2022-08-05T02:20:58.737Z,0.00
2022-08-05T02:21:57.129Z,0.00
2022-08-05T02:22:57.168Z,0.00
2022-08-05T02:23:57.210Z,0.00
2022-08-05T02:24:57.248Z,0.00
2022-08-05T02:25:57.290Z,0.00
2022-08-05T02:26:57.330Z,0.00
2022-08-05T02:27:58.048Z,0.00
2022-08-05T02:28:58.216Z,0.00
2022-08-05T02:29:58.388Z,0.00
2022-08-05T02:30:57.491Z,0.00
2022-08-05T02:31:57.534Z,0.00
2022-08-05T02:32:57.582Z,0.00
2022-08-05T02:33:58.136Z,0.00
2022-08-05T02:34:57.661Z,0.00
2022-08-05T02:36:00.673Z,0.00
2022-08-05T02:36:57.736Z,0.00
2022-08-05T02:38:00.178Z,0.00
2022-08-05T02:38:57.924Z,0.00
2022-08-05T02:39:57.854Z,0.00
2022-08-05T02:40:57.940Z,0.00
2022-08-05T02:42:01.206Z,0.00
2022-08-05T02:42:57.977Z,0.00
2022-08-05T02:44:06.014Z,0.00
2022-08-05T02:44:58.055Z,0.00
2022-08-05T02:45:58.096Z,0.00
2022-08-05T02:47:00.165Z,0.00
2022-08-05T02:48:06.670Z,0.00
2022-08-05T02:48:58.230Z,0.00
2022-08-05T02:49:58.258Z,0.00
2022-08-05T02:50:58.300Z,0.00
2022-08-05T02:52:03.165Z,0.00
2022-08-05T02:52:58.380Z,0.00
2022-08-05T02:54:03.333Z,0.00
2022-08-05T02:54:58.456Z,0.00
2022-08-05T02:55:59.938Z,0.00
2022-08-05T02:56:58.536Z,0.00
2022-08-05T02:58:11.079Z,0.00
2022-08-05T02:58:58.615Z,0.00
2022-08-05T02:59:59.419Z,0.00
2022-08-05T03:00:58.699Z,0.00
2022-08-05T03:01:58.842Z,0.00
2022-08-05T03:02:58.777Z,0.00
2022-08-05T03:04:02.583Z,0.00
2022-08-05T03:04:58.858Z,0.00
2022-08-05T03:06:54.783Z,0.00
2022-08-05T03:07:00.255Z,0.00
2022-08-05T03:08:04.323Z,0.00
2022-08-05T03:08:59.032Z,4.00
2022-08-05T03:09:59.058Z,4.00
2022-08-05T03:11:53.668Z,0.00
2022-08-05T03:11:59.151Z,0.00
2022-08-05T03:14:02.715Z,4.00
2022-08-05T03:15:02.072Z,4.00
2022-08-05T03:17:09.015Z,4.00
2022-08-05T03:18:06.167Z,4.00
2022-08-05T03:20:10.462Z,4.00
2022-08-05T03:21:10.269Z,4.00
2022-08-05T03:23:14.333Z,8.00
2022-08-05T03:24:14.367Z,8.00
2022-08-05T03:25:32.988Z,8.00
2022-08-05T03:26:31.543Z,8.00
2022-08-05T03:27:14.487Z,12.00
2022-08-05T03:28:14.528Z,12.00
2022-08-05T03:29:17.330Z,16.00
2022-08-05T03:30:14.607Z,16.00
2022-08-05T03:31:18.206Z,16.00
2022-08-05T03:32:14.686Z,20.00
2022-08-05T03:33:14.724Z,20.00
2022-08-05T03:34:14.768Z,24.00
2022-08-05T03:35:14.807Z,24.00
2022-08-05T03:36:14.846Z,24.00
2022-08-05T03:37:14.883Z,28.00
2022-08-05T03:38:14.926Z,28.00
2022-08-05T03:39:20.036Z,28.00
2022-08-05T03:40:15.519Z,32.00
2022-08-05T03:41:15.044Z,32.00
2022-08-05T03:42:15.084Z,36.00
2022-08-05T03:43:58.504Z,36.00
2022-08-05T03:44:20.019Z,40.00
2022-08-05T03:45:21.553Z,44.00
2022-08-05T03:46:15.243Z,44.00
2022-08-05T03:47:15.355Z,44.00
2022-08-05T03:48:15.323Z,48.00
2022-08-05T03:49:15.362Z,48.00
2022-08-05T03:50:15.401Z,52.00
2022-08-05T03:52:37.709Z,52.00
2022-08-05T03:52:50.622Z,52.00
2022-08-05T03:55:34.230Z,56.00
2022-08-05T03:55:51.628Z,56.00
2022-08-05T03:56:01.782Z,60.00
2022-08-05T03:56:18.107Z,64.00
2022-08-05T03:57:16.389Z,64.00
2022-08-05T03:58:15.721Z,72.00
2022-08-05T03:59:15.763Z,72.00
2022-08-05T04:00:16.433Z,76.00
2022-08-05T04:01:15.871Z,76.00
2022-08-05T04:02:17.597Z,80.00
2022-08-05T04:03:28.217Z,84.00
2022-08-05T04:04:16.870Z,88.00
2022-08-05T04:05:16.001Z,88.00
2022-08-05T04:06:16.038Z,92.00
2022-08-05T04:07:16.096Z,96.00
2022-08-05T04:08:34.819Z,100.00
2022-08-05T04:09:20.286Z,104.00
2022-08-05T04:10:17.540Z,108.00
2022-08-05T04:11:16.248Z,112.00
2022-08-05T04:12:23.576Z,116.00
2022-08-05T04:13:16.319Z,124.00
2022-08-05T04:14:18.174Z,128.00
2022-08-05T04:15:16.832Z,132.00
2022-08-05T04:16:16.437Z,136.00
2022-08-05T04:17:16.476Z,144.00
2022-08-05T04:18:22.510Z,152.00
2022-08-05T04:19:16.554Z,152.00
2022-08-05T04:20:16.594Z,156.00
2022-08-05T04:21:45.752Z,160.00
2022-08-05T04:22:20.600Z,164.00
2022-08-05T04:23:16.715Z,164.00
2022-08-05T04:24:19.346Z,168.00
2022-08-05T04:25:16.792Z,172.00
2022-08-05T04:26:17.387Z,180.00
2022-08-05T04:27:16.930Z,180.00
2022-08-05T04:28:17.271Z,188.00
2022-08-05T04:29:16.955Z,200.00
2022-08-05T04:30:16.994Z,208.00
2022-08-05T04:31:17.036Z,220.00
2022-08-05T04:32:30.649Z,228.00
2022-08-05T04:33:17.113Z,236.00
2022-08-05T04:34:32.584Z,244.00
2022-08-05T04:35:19.454Z,248.00
2022-08-05T04:36:46.143Z,256.00
2022-08-05T04:37:17.271Z,272.00
2022-08-05T04:38:17.308Z,284.00
2022-08-05T04:39:17.389Z,296.00
2022-08-05T04:40:19.639Z,308.00
2022-08-05T04:41:17.429Z,312.00
2022-08-05T04:43:29.959Z,336.00
2022-08-05T04:44:30.812Z,348.00
2022-08-05T04:46:28.238Z,364.00
2022-08-05T04:47:23.324Z,368.00
2022-08-05T04:49:16.288Z,372.00
2022-08-05T04:50:16.266Z,372.00
2022-08-05T04:52:20.383Z,368.00
2022-08-05T04:53:20.418Z,368.00
2022-08-05T04:54:20.460Z,368.00
2022-08-05T04:55:21.057Z,372.00
2022-08-05T04:56:35.143Z,372.00
2022-08-05T04:57:20.595Z,372.00
2022-08-05T04:58:21.695Z,368.00
2022-08-05T04:59:23.957Z,368.00
2022-08-05T05:00:23.586Z,368.00
2022-08-05T05:02:05.827Z,368.00
2022-08-05T05:02:41.499Z,364.00
2022-08-05T05:03:20.814Z,356.00
2022-08-05T05:04:20.858Z,356.00
2022-08-05T05:05:28.191Z,352.00
2022-08-05T05:06:40.671Z,352.00
2022-08-05T05:07:29.277Z,352.00
2022-08-05T05:08:26.737Z,348.00
2022-08-05T05:09:21.060Z,348.00
2022-08-05T05:10:21.093Z,344.00
2022-08-05T05:11:21.133Z,344.00
2022-08-05T05:12:21.171Z,340.00
2022-08-05T05:13:21.214Z,340.00
2022-08-05T05:14:27.776Z,336.00
2022-08-05T05:15:57.436Z,332.00
2022-08-05T05:16:21.331Z,320.00
2022-08-05T05:17:24.705Z,308.00
2022-08-05T05:18:31.179Z,296.00
2022-08-05T05:19:23.681Z,292.00
2022-08-05T05:20:21.496Z,292.00
2022-08-05T05:21:21.533Z,292.00
2022-08-05T05:22:24.646Z,288.00
2022-08-05T05:23:21.613Z,292.00
2022-08-05T05:24:21.662Z,296.00
2022-08-05T05:25:21.691Z,308.00
2022-08-05T05:26:28.689Z,316.00
2022-08-05T05:27:21.964Z,324.00
2022-08-05T05:28:21.819Z,336.00
2022-08-05T05:29:21.851Z,348.00
2022-08-05T05:30:29.783Z,352.00
2022-08-05T05:31:21.934Z,348.00
2022-08-05T05:32:21.974Z,352.00
2022-08-05T05:33:23.463Z,352.00
2022-08-05T05:34:27.122Z,352.00
2022-08-05T05:35:22.091Z,340.00
2022-08-05T05:36:22.129Z,328.00
2022-08-05T05:37:22.459Z,316.00
2022-08-05T05:38:27.098Z,296.00
2022-08-05T05:39:22.294Z,272.00
2022-08-05T05:40:22.289Z,256.00
2022-08-05T05:41:22.332Z,236.00
2022-08-05T05:42:22.370Z,224.00
2022-08-05T05:43:54.030Z,216.00
2022-08-05T05:44:36.528Z,216.00
2022-08-05T05:45:22.491Z,228.00
2022-08-05T05:46:22.530Z,256.00
2022-08-05T05:47:22.571Z,292.00
2022-08-05T05:48:27.582Z,304.00
2022-08-05T05:49:23.376Z,312.00
2022-08-05T05:50:22.690Z,312.00
2022-08-05T05:51:22.748Z,308.00
2022-08-05T05:52:26.438Z,304.00
2022-08-05T05:53:23.067Z,296.00
2022-08-05T05:54:22.883Z,280.00
2022-08-05T05:55:22.928Z,252.00
2022-08-05T05:56:26.013Z,232.00
2022-08-05T05:57:23.073Z,212.00
2022-08-05T05:58:23.013Z,196.00
2022-08-05T05:59:23.052Z,192.00
2022-08-05T06:00:27.757Z,196.00
2022-08-05T06:01:23.470Z,204.00
2022-08-05T06:02:32.559Z,228.00
2022-08-05T06:03:39.645Z,260.00
2022-08-05T06:04:23.503Z,296.00
2022-08-05T06:05:23.329Z,332.00
2022-08-05T06:06:23.354Z,372.00
2022-08-05T06:07:23.664Z,412.00
2022-08-05T06:08:32.397Z,440.00
2022-08-05T06:09:26.517Z,452.00
2022-08-05T06:10:23.787Z,480.00
2022-08-05T06:11:23.561Z,508.00
2022-08-05T06:12:23.737Z,520.00
2022-08-05T06:13:23.692Z,528.00
2022-08-05T06:14:23.724Z,536.00
2022-08-05T06:15:24.510Z,544.00
2022-08-05T06:16:31.806Z,548.00
2022-08-05T06:17:24.567Z,540.00
2022-08-05T06:18:31.269Z,528.00
2022-08-05T06:19:34.136Z,516.00
2022-08-05T06:20:24.142Z,512.00
2022-08-05T06:21:24.019Z,512.00
2022-08-05T06:22:24.029Z,488.00
2022-08-05T06:23:24.011Z,476.00
2022-08-05T06:24:27.313Z,480.00
2022-08-05T06:25:59.858Z,480.00
2022-08-05T06:26:25.150Z,484.00
2022-08-05T06:28:10.782Z,504.00
2022-08-05T06:28:24.551Z,528.00
2022-08-05T06:29:46.787Z,564.00
2022-08-05T06:30:24.354Z,608.00
2022-08-05T06:31:30.583Z,648.00
2022-08-05T06:32:25.938Z,668.00
2022-08-05T06:33:33.342Z,692.00
2022-08-05T06:34:24.485Z,744.00
2022-08-05T06:36:08.240Z,776.00
2022-08-05T06:36:25.937Z,784.00
2022-08-05T06:37:57.937Z,808.00
2022-08-05T06:38:36.013Z,816.00
2022-08-05T06:39:27.020Z,840.00
2022-08-05T06:40:27.737Z,864.00
2022-08-05T06:41:24.738Z,888.00
2022-08-05T06:42:25.373Z,900.00
2022-08-05T06:43:58.245Z,880.00
2022-08-05T06:44:24.856Z,872.00
2022-08-05T06:45:44.594Z,900.00
2022-08-05T06:46:30.296Z,944.00
2022-08-05T06:48:11.736Z,916.00
2022-08-05T06:48:50.249Z,860.00
2022-08-05T06:50:01.402Z,832.00
2022-08-05T06:50:25.098Z,816.00
2022-08-05T06:51:29.357Z,800.00
2022-08-05T06:52:36.361Z,816.00
2022-08-05T06:53:27.900Z,848.00
2022-08-05T06:54:25.824Z,868.00
2022-08-05T06:55:25.298Z,868.00
2022-08-05T06:56:26.614Z,860.00
2022-08-05T06:58:03.889Z,860.00
2022-08-05T06:58:35.288Z,876.00
2022-08-05T06:59:25.459Z,900.00
2022-08-05T07:00:25.651Z,932.00
2022-08-05T07:01:31.963Z,960.00
2022-08-05T07:02:25.581Z,1000.00
2022-08-05T07:03:28.132Z,1032.00
2022-08-05T07:04:25.674Z,1052.00
2022-08-05T07:05:31.870Z,1088.00
2022-08-05T07:06:25.767Z,1108.00
2022-08-05T07:07:35.591Z,1116.00
2022-08-05T07:08:25.837Z,1124.00
2022-08-05T07:09:25.880Z,1112.00
2022-08-05T07:10:32.382Z,1076.00
2022-08-05T07:11:25.957Z,1052.00
2022-08-05T07:12:26.150Z,1028.00
2022-08-05T07:13:56.914Z,988.00
2022-08-05T07:14:30.045Z,960.00
2022-08-05T07:16:00.367Z,944.00
2022-08-05T07:17:59.526Z,932.00
2022-08-05T07:18:00.088Z,924.00
2022-08-05T07:18:29.336Z,912.00
2022-08-05T07:20:05.742Z,888.00
2022-08-05T07:20:38.759Z,884.00
2022-08-05T07:21:26.365Z,884.00
2022-08-05T07:22:29.012Z,884.00
2022-08-05T07:23:29.502Z,860.00
2022-08-05T07:24:28.681Z,808.00
2022-08-05T07:25:56.252Z,764.00
2022-08-05T07:26:26.567Z,744.00
2022-08-05T07:27:27.638Z,732.00
2022-08-05T07:28:26.635Z,724.00
2022-08-05T07:30:24.232Z,716.00
2022-08-05T07:30:32.268Z,744.00
2022-08-05T07:31:40.747Z,788.00
2022-08-05T07:32:26.814Z,828.00
2022-08-05T07:33:36.866Z,836.00
2022-08-05T07:34:28.791Z,816.00
2022-08-05T07:36:04.200Z,792.00
2022-08-05T07:36:26.961Z,760.00
2022-08-05T07:37:29.119Z,708.00
2022-08-05T07:38:33.803Z,628.00
2022-08-05T07:40:04.492Z,556.00
2022-08-05T07:40:32.843Z,540.00
2022-08-05T07:42:14.610Z,512.00
2022-08-05T07:42:31.770Z,488.00
2022-08-05T07:43:27.288Z,484.00
2022-08-05T07:44:27.295Z,468.00
2022-08-05T07:45:57.565Z,444.00
2022-08-05T07:46:27.393Z,376.00
2022-08-05T07:47:27.798Z,336.00
2022-08-05T07:49:00.642Z,316.00
2022-08-05T07:49:27.526Z,312.00
2022-08-05T07:50:32.428Z,292.00
2022-08-05T07:51:40.270Z,276.00
2022-08-05T07:52:27.615Z,260.00
2022-08-05T07:53:36.881Z,244.00
2022-08-05T07:54:31.021Z,216.00
2022-08-05T07:55:44.533Z,204.00
2022-08-05T07:56:39.325Z,200.00
2022-08-05T07:57:51.316Z,216.00
2022-08-05T07:58:57.468Z,232.00
2022-08-05T07:59:39.117Z,244.00
2022-08-05T08:00:27.943Z,244.00
2022-08-05T08:01:29.978Z,228.00
2022-08-05T08:02:31.388Z,228.00
2022-08-05T08:03:44.446Z,252.00
2022-08-05T08:04:37.513Z,256.00
2022-08-05T08:05:28.146Z,260.00
2022-08-05T08:06:28.378Z,260.00
2022-08-05T08:07:28.970Z,260.00
2022-08-05T08:08:28.269Z,260.00
2022-08-05T08:09:29.170Z,268.00
2022-08-05T08:10:28.349Z,292.00
2022-08-05T08:11:47.396Z,312.00
2022-08-05T08:12:48.393Z,312.00
2022-08-05T08:13:29.425Z,328.00
2022-08-05T08:14:28.534Z,352.00
2022-08-05T08:16:34.975Z,396.00
2022-08-05T08:16:35.948Z,368.00
2022-08-05T08:17:28.627Z,420.00
2022-08-05T08:18:28.679Z,436.00
2022-08-05T08:20:10.232Z,464.00
2022-08-05T08:20:59.689Z,524.00
2022-08-05T08:21:28.790Z,588.00
2022-08-05T08:22:28.832Z,632.00
2022-08-05T08:24:01.104Z,680.00
2022-08-05T08:24:51.635Z,692.00
2022-08-05T08:26:00.086Z,652.00
2022-08-05T08:26:29.596Z,604.00
2022-08-05T08:27:40.445Z,560.00
2022-08-05T08:28:35.608Z,532.00
2022-08-05T08:30:04.280Z,524.00
2022-08-05T08:30:37.713Z,516.00
2022-08-05T08:31:29.196Z,492.00
2022-08-05T08:32:29.238Z,448.00
2022-08-05T08:33:29.278Z,400.00
2022-08-05T08:34:30.398Z,336.00
2022-08-05T08:35:34.692Z,284.00
2022-08-05T08:36:47.365Z,280.00
2022-08-05T08:37:29.442Z,292.00
2022-08-05T08:38:35.935Z,292.00
2022-08-05T08:39:29.547Z,300.00
2022-08-05T08:40:29.562Z,296.00
2022-08-05T08:41:50.858Z,292.00
2022-08-05T08:42:34.236Z,316.00
2022-08-05T08:45:20.710Z,344.00
2022-08-05T08:45:23.475Z,340.00
2022-08-05T08:45:30.611Z,372.00
2022-08-05T08:46:29.809Z,396.00
2022-08-05T08:48:07.157Z,368.00
2022-08-05T08:48:59.678Z,320.00
2022-08-05T08:50:08.857Z,288.00
2022-08-05T08:51:03.109Z,260.00
2022-08-05T08:52:03.525Z,236.00
2022-08-05T08:52:30.359Z,220.00
2022-08-05T08:53:30.093Z,220.00
2022-08-05T08:54:30.139Z,232.00
2022-08-05T08:56:03.002Z,256.00
2022-08-05T08:56:30.216Z,268.00
2022-08-05T08:57:42.377Z,280.00
2022-08-05T08:58:43.112Z,280.00
2022-08-05T08:59:33.513Z,280.00
2022-08-05T09:00:30.420Z,276.00
2022-08-05T09:01:30.500Z,260.00
2022-08-05T09:02:30.456Z,248.00
2022-08-05T09:03:40.407Z,244.00
2022-08-05T09:04:31.070Z,272.00
2022-08-05T09:05:38.324Z,328.00
2022-08-05T09:06:30.881Z,396.00
2022-08-05T09:07:39.451Z,472.00
2022-08-05T09:08:30.703Z,572.00
2022-08-05T09:09:34.635Z,664.00
2022-08-05T09:10:30.786Z,676.00
2022-08-05T09:11:53.670Z,672.00
2022-08-05T09:12:31.251Z,692.00
2022-08-05T09:13:31.792Z,652.00
2022-08-05T09:14:58.880Z,604.00
2022-08-05T09:15:30.990Z,572.00
2022-08-05T09:16:31.028Z,588.00
2022-08-05T09:17:42.845Z,588.00
2022-08-05T09:18:31.115Z,584.00
2022-08-05T09:19:36.671Z,612.00
2022-08-05T09:20:36.404Z,688.00
2022-08-05T09:22:22.777Z,796.00
2022-08-05T09:22:33.101Z,908.00
2022-08-05T09:23:43.357Z,996.00
2022-08-05T09:24:31.770Z,1108.00
2022-08-05T09:26:02.045Z,1244.00
2022-08-05T09:26:32.426Z,1360.00
2022-08-05T09:28:03.830Z,1408.00
2022-08-05T09:28:33.182Z,1436.00
2022-08-05T09:29:31.552Z,1448.00
2022-08-05T09:30:31.590Z,1380.00
2022-08-05T09:32:39.941Z,1228.00
2022-08-05T09:32:45.756Z,1060.00
2022-08-05T09:33:35.070Z,988.00
2022-08-05T09:34:31.753Z,968.00
2022-08-05T09:35:31.794Z,944.00
2022-08-05T09:36:33.453Z,840.00
2022-08-05T09:38:17.089Z,844.00
2022-08-05T09:38:31.915Z,868.00
2022-08-05T09:39:45.300Z,836.00
2022-08-05T09:40:32.292Z,844.00
2022-08-05T09:41:33.205Z,860.00
2022-08-05T09:42:32.304Z,788.00
2022-08-05T09:43:41.192Z,696.00
2022-08-05T09:44:32.159Z,620.00
2022-08-05T09:46:07.237Z,540.00
2022-08-05T09:46:32.238Z,468.00
2022-08-05T09:47:48.086Z,396.00
2022-08-05T09:48:32.319Z,340.00
2022-08-05T09:49:54.478Z,304.00
2022-08-05T09:50:38.711Z,280.00
2022-08-05T09:51:32.444Z,240.00
2022-08-05T09:52:32.483Z,220.00
2022-08-05T09:53:54.923Z,224.00
2022-08-05T09:54:32.565Z,244.00
2022-08-05T09:55:58.313Z,244.00
2022-08-05T09:56:32.647Z,220.00
2022-08-05T09:57:33.774Z,204.00
2022-08-05T09:58:32.750Z,204.00
2022-08-05T09:59:35.137Z,200.00
2022-08-05T10:00:32.816Z,200.00
2022-08-05T10:01:32.854Z,204.00
2022-08-05T10:02:32.917Z,216.00
2022-08-05T10:03:38.689Z,236.00
2022-08-05T10:04:32.971Z,252.00
2022-08-05T10:05:33.066Z,264.00
2022-08-05T10:06:33.049Z,296.00
2022-08-05T10:08:10.680Z,352.00
2022-08-05T10:08:37.784Z,408.00
2022-08-05T10:09:45.148Z,428.00
2022-08-05T10:10:33.209Z,464.00
2022-08-05T10:11:35.111Z,500.00
2022-08-05T10:12:34.002Z,488.00
2022-08-05T10:13:47.516Z,404.00
2022-08-05T10:14:33.377Z,396.00
2022-08-05T10:15:34.363Z,444.00
2022-08-05T10:16:33.894Z,524.00
2022-08-05T10:17:37.840Z,464.00
2022-08-05T10:18:33.533Z,536.00
2022-08-05T10:20:04.518Z,620.00
2022-08-05T10:20:33.614Z,832.00
2022-08-05T10:21:35.277Z,988.00
2022-08-05T10:22:37.689Z,744.00
2022-08-05T10:23:55.158Z,684.00
2022-08-05T10:24:33.776Z,576.00
2022-08-05T10:25:33.818Z,424.00
2022-08-05T10:26:34.006Z,348.00
2022-08-05T10:28:12.791Z,324.00
2022-08-05T10:28:33.968Z,312.00
2022-08-05T10:30:06.820Z,340.00
2022-08-05T10:31:20.275Z,324.00
2022-08-05T10:32:53.917Z,320.00
2022-08-05T10:32:55.421Z,320.00
2022-08-05T10:33:35.118Z,328.00
2022-08-05T10:34:34.183Z,336.00
2022-08-05T10:35:43.879Z,332.00
2022-08-05T10:36:34.261Z,320.00
2022-08-05T10:37:40.461Z,316.00
2022-08-05T10:38:34.348Z,316.00
2022-08-05T10:39:59.455Z,320.00
2022-08-05T10:40:34.459Z,328.00
2022-08-05T10:41:46.620Z,344.00
2022-08-05T10:42:43.782Z,364.00
2022-08-05T10:44:27.514Z,404.00
2022-08-05T10:45:39.984Z,428.00
2022-08-05T10:47:31.660Z,508.00
2022-08-05T10:48:36.070Z,576.00
2022-08-05T10:50:37.015Z,832.00
2022-08-05T10:51:35.757Z,1076.00
2022-08-05T10:52:35.800Z,1320.00
2022-08-05T10:53:37.986Z,1504.00
2022-08-05T10:54:46.785Z,1508.00
2022-08-05T10:56:03.683Z,1480.00
2022-08-05T10:56:35.963Z,1404.00
2022-08-05T10:57:35.997Z,1236.00
2022-08-05T10:58:48.807Z,1116.00
2022-08-05T11:00:02.547Z,992.00
2022-08-05T11:00:42.191Z,896.00
2022-08-05T11:01:55.128Z,816.00
2022-08-05T11:02:38.762Z,772.00
2022-08-05T11:03:36.328Z,780.00
2022-08-05T11:04:36.604Z,796.00
2022-08-05T11:05:36.338Z,868.00
2022-08-05T11:06:36.383Z,948.00
2022-08-05T11:08:02.732Z,1016.00
2022-08-05T11:08:37.234Z,1088.00
2022-08-05T11:09:45.589Z,1168.00
2022-08-05T11:10:36.525Z,1292.00
2022-08-05T11:11:44.488Z,1480.00
2022-08-05T11:12:37.362Z,1680.00
2022-08-05T11:13:36.654Z,1948.00
2022-08-05T11:15:01.258Z,2256.00
2022-08-05T11:15:59.220Z,2380.00
2022-08-05T11:16:56.024Z,2528.00
2022-08-05T11:17:59.518Z,2548.00
2022-08-05T11:18:36.846Z,2684.00
2022-08-05T11:20:10.938Z,2512.00
2022-08-05T11:20:36.928Z,2384.00
2022-08-05T11:21:40.941Z,2208.00
2022-08-05T11:22:37.035Z,2300.00
2022-08-05T11:24:05.601Z,2424.00
2022-08-05T11:24:37.099Z,2588.00
2022-08-05T11:26:04.904Z,2716.00
2022-08-05T11:26:37.176Z,2772.00
2022-08-05T11:27:51.475Z,2608.00
2022-08-05T11:28:37.268Z,2304.00
2022-08-05T11:29:37.447Z,2108.00
2022-08-05T11:30:37.337Z,2124.00
2022-08-05T11:31:56.271Z,2072.00
2022-08-05T11:32:37.438Z,2100.00
2022-08-05T11:33:46.138Z,2128.00
2022-08-05T11:34:37.500Z,2224.00
2022-08-05T11:35:37.622Z,2508.00
2022-08-05T11:36:42.858Z,2768.00
2022-08-05T11:38:26.574Z,2948.00
2022-08-05T11:38:45.977Z,2868.00
2022-08-05T11:39:37.721Z,2836.00
2022-08-05T11:40:37.742Z,2764.00
2022-08-05T11:42:01.370Z,2800.00
2022-08-05T11:42:40.530Z,2960.00
2022-08-05T11:44:04.602Z,3100.00
2022-08-05T11:44:52.906Z,2792.00
2022-08-05T11:46:23.439Z,2632.00
2022-08-05T11:46:58.152Z,2928.00
2022-08-05T11:47:49.502Z,2640.00
2022-08-05T11:48:38.084Z,2524.00
2022-08-05T11:49:38.126Z,2420.00
2022-08-05T11:50:38.166Z,2420.00
2022-08-05T11:51:44.186Z,2316.00
2022-08-05T11:52:38.251Z,2352.00
2022-08-05T11:53:40.961Z,2364.00
2022-08-05T11:54:38.346Z,2648.00
2022-08-05T11:55:38.392Z,2808.00
2022-08-05T11:56:41.168Z,2932.00
2022-08-05T11:58:08.557Z,3032.00
2022-08-05T11:58:38.499Z,2924.00
2022-08-05T11:59:49.825Z,2744.00
2022-08-05T12:00:39.096Z,2524.00
2022-08-05T12:01:38.644Z,2504.00
2022-08-05T12:02:40.145Z,2536.00
2022-08-05T12:03:38.708Z,2504.00
2022-08-05T12:04:38.743Z,2372.00
2022-08-05T12:05:40.041Z,2396.00
2022-08-05T12:06:38.817Z,2400.00
2022-08-05T12:08:09.060Z,2388.00
2022-08-05T12:08:39.235Z,1384.00
2022-08-05T12:09:53.434Z,2352.00
2022-08-05T12:10:45.326Z,2504.00
2022-08-05T12:11:39.849Z,2684.00
2022-08-05T12:12:39.070Z,2424.00
2022-08-05T12:13:48.711Z,2360.00
2022-08-05T12:14:39.173Z,2196.00
2022-08-05T12:15:40.121Z,1932.00
2022-08-05T12:16:39.241Z,1940.00
2022-08-05T12:18:02.880Z,2156.00
2022-08-05T12:18:39.321Z,2180.00
2022-08-05T12:20:27.852Z,2188.00
2022-08-05T12:20:39.434Z,2044.00
2022-08-05T12:21:39.527Z,1948.00
2022-08-05T12:22:39.508Z,1888.00
2022-08-05T12:23:43.141Z,1912.00
2022-08-05T12:24:39.575Z,1956.00
2022-08-05T12:25:39.614Z,1964.00
2022-08-05T12:26:39.694Z,1968.00
2022-08-05T12:27:52.869Z,1956.00
2022-08-05T12:28:39.743Z,1936.00
2022-08-05T12:29:39.795Z,1940.00
2022-08-05T12:30:45.915Z,1992.00
2022-08-05T12:31:41.506Z,2048.00
2022-08-05T12:32:39.922Z,2160.00
2022-08-05T12:33:39.973Z,2296.00
2022-08-05T12:34:40.005Z,2380.00
2022-08-05T12:35:40.078Z,2396.00
2022-08-05T12:36:40.108Z,2300.00
2022-08-05T12:37:40.123Z,1952.00
2022-08-05T12:38:41.332Z,1796.00
2022-08-05T12:39:40.242Z,1844.00
2022-08-05T12:40:40.261Z,1824.00
2022-08-05T12:41:43.617Z,1728.00
2022-08-05T12:42:40.349Z,1824.00
2022-08-05T12:43:40.381Z,1912.00
2022-08-05T12:44:40.803Z,1796.00
2022-08-05T12:45:48.244Z,1764.00
2022-08-05T12:46:40.513Z,1752.00
2022-08-05T12:47:43.423Z,1736.00
2022-08-05T12:48:40.605Z,1748.00
2022-08-05T12:50:04.464Z,1716.00
2022-08-05T12:50:40.696Z,1756.00